createdAt,value
2022-08-16T00:00:46.379Z,6.03
2022-08-16T00:06:15.410Z,5.57
2022-08-16T00:11:27.271Z,5.80
2022-08-16T00:17:18.533Z,5.87
2022-08-16T00:22:43.077Z,5.83
2022-08-16T00:33:36.856Z,6.47
2022-08-16T00:39:15.563Z,6.37
2022-08-16T00:44:23.312Z,7.83
2022-08-16T00:49:56.386Z,7.10
2022-08-16T00:55:08.363Z,9.07
2022-08-16T01:00:13.771Z,7.63
2022-08-16T01:05:24.955Z,8.33
2022-08-16T01:10:33.762Z,6.90
2022-08-16T01:15:52.841Z,8.07
2022-08-16T01:21:22.779Z,7.57
2022-08-16T01:26:36.355Z,6.87
2022-08-16T01:31:42.725Z,7.50
2022-08-16T01:36:45.478Z,7.37
2022-08-16T01:42:00.596Z,7.97
2022-08-16T01:47:02.789Z,7.33
2022-08-16T01:52:08.869Z,8.00
2022-08-16T01:57:31.496Z,7.40
2022-08-16T02:02:33.591Z,10.57
2022-08-16T02:07:35.772Z,9.40
2022-08-16T02:12:50.244Z,8.57
2022-08-16T02:17:55.293Z,8.53
2022-08-16T02:22:59.665Z,8.47
2022-08-16T02:28:03.941Z,8.83
2022-08-16T02:33:06.467Z,8.07
2022-08-16T02:38:09.105Z,8.27
2022-08-16T02:43:11.090Z,8.43
2022-08-16T02:48:29.246Z,7.53
2022-08-16T02:53:33.237Z,8.13
2022-08-16T02:58:35.056Z,7.83
2022-08-16T03:04:29.029Z,7.30
2022-08-16T03:09:13.139Z,7.33
2022-08-16T03:14:25.071Z,8.33
2022-08-16T03:19:48.056Z,9.17
2022-08-16T03:25:01.600Z,8.60
2022-08-16T03:30:20.016Z,8.83
2022-08-16T03:35:32.431Z,8.30
2022-08-16T03:40:41.754Z,9.97
2022-08-16T03:45:53.689Z,9.13
2022-08-16T03:51:14.432Z,8.77
2022-08-16T03:56:39.763Z,8.63
2022-08-16T04:02:22.424Z,9.07
2022-08-16T04:07:38.935Z,10.13
2022-08-16T04:12:53.199Z,8.87
2022-08-16T04:18:03.816Z,8.87
2022-08-16T04:23:11.625Z,11.33
2022-08-16T04:28:53.398Z,9.40
2022-08-16T04:34:02.170Z,8.73
2022-08-16T04:39:05.703Z,8.43
2022-08-16T04:44:32.633Z,8.80
2022-08-16T04:49:43.700Z,10.30
2022-08-16T04:54:47.951Z,9.30
2022-08-16T04:59:55.466Z,9.57
2022-08-16T05:11:39.929Z,10.57
2022-08-16T05:22:24.456Z,11.33
2022-08-16T05:33:28.340Z,11.70
2022-08-16T05:38:39.688Z,10.00
2022-08-16T05:43:46.752Z,9.67
2022-08-16T05:48:54.832Z,10.40
2022-08-16T05:53:57.670Z,21.97
2022-08-16T05:58:59.961Z,12.93
2022-08-16T06:04:03.375Z,20.07
2022-08-16T06:09:16.728Z,19.53
2022-08-16T06:14:19.980Z,14.57
2022-08-16T06:19:22.509Z,12.30
2022-08-16T06:24:52.604Z,18.40
2022-08-16T06:29:49.869Z,11.10
2022-08-16T06:34:57.327Z,7.63
2022-08-16T06:40:05.384Z,7.00
2022-08-16T06:45:15.381Z,7.00
2022-08-16T06:50:22.296Z,7.10
2022-08-16T06:55:34.113Z,6.40
2022-08-16T07:00:37.976Z,5.77
2022-08-16T07:05:45.041Z,5.63
2022-08-16T07:10:46.789Z,6.07
2022-08-16T07:15:51.076Z,5.57
2022-08-16T07:21:01.752Z,4.73
2022-08-16T07:26:06.163Z,5.37
2022-08-16T07:31:12.963Z,5.00
2022-08-16T07:36:21.940Z,5.37
2022-08-16T07:41:24.280Z,5.70
2022-08-16T07:46:39.437Z,5.57
2022-08-16T07:51:42.351Z,4.90
2022-08-16T07:56:44.327Z,6.23
2022-08-16T08:01:46.396Z,5.17
2022-08-16T08:06:51.114Z,4.50
2022-08-16T08:11:59.746Z,5.00
2022-08-16T08:17:08.662Z,5.73
2022-08-16T08:22:19.227Z,5.23
2022-08-16T08:27:23.908Z,5.23
2022-08-16T08:33:00.346Z,4.30
2022-08-16T08:37:55.334Z,4.60
2022-08-16T08:43:00.820Z,6.17
2022-08-16T08:48:32.969Z,4.73
2022-08-16T08:53:36.107Z,4.50
2022-08-16T08:58:38.278Z,5.60
2022-08-16T09:03:55.876Z,6.13
2022-08-16T09:08:59.929Z,6.40
2022-08-16T09:14:01.659Z,5.07
2022-08-16T09:19:04.270Z,4.73
2022-08-16T09:24:09.834Z,5.70
2022-08-16T09:29:15.961Z,6.13
2022-08-16T09:34:25.776Z,4.83
2022-08-16T09:39:28.727Z,4.73
2022-08-16T09:45:11.144Z,5.63
2022-08-16T09:50:06.331Z,5.77
2022-08-16T09:55:14.484Z,4.13
2022-08-16T10:00:19.682Z,4.93
2022-08-16T10:05:38.256Z,4.95
2022-08-16T10:11:03.327Z,4.05
2022-08-16T10:21:16.796Z,4.70
2022-08-16T10:27:17.438Z,5.32
2022-08-16T10:31:45.309Z,4.50
2022-08-16T10:36:48.221Z,4.45
2022-08-16T10:41:56.165Z,4.22
2022-08-16T10:47:00.815Z,4.78
2022-08-16T10:52:18.245Z,4.93
2022-08-16T10:57:21.017Z,4.70
2022-08-16T11:02:58.779Z,4.22
2022-08-16T11:07:52.237Z,5.25
2022-08-16T11:12:56.227Z,4.90
2022-08-16T11:23:20.095Z,4.95
2022-08-16T11:33:52.494Z,6.05
2022-08-16T11:38:57.570Z,5.25
2022-08-16T11:44:01.081Z,4.45
2022-08-16T11:49:06.702Z,4.30
2022-08-16T11:54:21.177Z,5.05
2022-08-16T11:59:25.416Z,5.18
2022-08-16T12:04:31.250Z,5.50
2022-08-16T12:09:33.033Z,4.78
2022-08-16T12:14:36.770Z,5.25
2022-08-16T12:19:39.407Z,4.90
2022-08-16T12:24:41.101Z,4.45
2022-08-16T12:29:45.064Z,4.80
2022-08-16T12:34:47.941Z,4.40
2022-08-16T12:39:55.944Z,4.82
2022-08-16T12:44:57.834Z,5.10
2022-08-16T12:50:00.094Z,4.57
2022-08-16T12:55:04.257Z,4.15
2022-08-16T13:00:26.568Z,4.07
2022-08-16T13:10:37.632Z,4.32
2022-08-16T13:15:51.795Z,4.53
2022-08-16T13:20:58.419Z,5.22
2022-08-16T13:26:00.423Z,4.60
2022-08-16T13:31:03.240Z,3.58
2022-08-16T13:36:07.315Z,4.50
2022-08-16T13:41:22.986Z,5.07
2022-08-16T13:46:26.273Z,5.18
2022-08-16T13:51:30.578Z,4.60
2022-08-16T13:56:38.713Z,4.88
2022-08-16T14:01:43.073Z,4.70
2022-08-16T14:06:47.018Z,4.82
2022-08-16T14:11:49.521Z,4.90
2022-08-16T14:16:55.278Z,4.10
2022-08-16T14:22:13.459Z,4.55
2022-08-16T14:27:19.705Z,4.60
2022-08-16T14:32:34.160Z,5.32
2022-08-16T14:37:37.180Z,4.93
2022-08-16T14:42:38.968Z,4.75
2022-08-16T14:47:40.925Z,4.63
2022-08-16T14:53:02.063Z,4.32
2022-08-16T14:58:06.367Z,5.30
2022-08-16T15:03:23.335Z,5.07
2022-08-16T15:08:36.187Z,4.32
2022-08-16T15:13:41.009Z,5.15
2022-08-16T15:18:42.744Z,4.68
2022-08-16T15:23:48.491Z,5.47
2022-08-16T15:28:51.297Z,5.03
2022-08-16T15:33:58.112Z,4.68
2022-08-16T15:39:05.732Z,4.80
2022-08-16T15:44:12.839Z,4.75
2022-08-16T15:49:15.489Z,5.30
2022-08-16T15:54:29.912Z,5.05
2022-08-16T15:59:34.834Z,4.78
2022-08-16T16:04:51.294Z,5.63
2022-08-16T16:09:55.614Z,5.03
2022-08-16T16:15:00.048Z,5.97
2022-08-16T16:20:04.576Z,12.10
2022-08-16T16:25:06.572Z,5.85
2022-08-16T16:30:11.293Z,5.47
2022-08-16T16:35:34.846Z,4.85
2022-08-16T16:40:46.638Z,5.03
2022-08-16T16:45:56.266Z,4.85
2022-08-16T16:50:58.388Z,4.97
2022-08-16T16:56:00.176Z,5.22
2022-08-16T17:01:02.035Z,4.68
2022-08-16T17:06:09.274Z,4.93
2022-08-16T17:11:14.186Z,5.28
2022-08-16T17:21:40.333Z,4.20
2022-08-16T17:26:48.973Z,5.43
2022-08-16T17:31:50.951Z,4.55
2022-08-16T17:36:54.447Z,4.30
2022-08-16T17:39:26.421Z,4.60
2022-08-16T17:41:57.428Z,4.65
2022-08-16T17:46:59.135Z,4.97
2022-08-16T17:52:00.892Z,4.17
2022-08-16T17:57:02.620Z,4.30
2022-08-16T18:02:42.458Z,4.40
2022-08-16T18:07:27.089Z,4.73
2022-08-16T18:12:51.203Z,5.93
2022-08-16T18:17:53.407Z,4.93
2022-08-16T18:22:55.430Z,5.47
2022-08-16T18:27:57.247Z,5.03
2022-08-16T18:32:59.078Z,5.20
2022-08-16T18:38:02.110Z,5.30
2022-08-16T18:43:06.981Z,5.30
2022-08-16T18:48:10.963Z,5.10
2022-08-16T18:53:14.528Z,4.80
2022-08-16T18:58:16.326Z,4.50
2022-08-16T19:03:29.593Z,5.90
2022-08-16T19:08:34.656Z,4.70
2022-08-16T19:13:37.847Z,5.23
2022-08-16T19:18:39.936Z,6.17
2022-08-16T19:23:43.402Z,4.47
2022-08-16T19:28:57.880Z,4.87
2022-08-16T19:34:02.340Z,4.87
2022-08-16T19:39:22.069Z,4.77
2022-08-16T19:44:23.846Z,5.23
2022-08-16T19:49:25.591Z,6.70
2022-08-16T19:54:27.493Z,5.47
2022-08-16T19:59:39.963Z,6.07
2022-08-16T20:04:42.315Z,7.13
2022-08-16T20:09:44.519Z,4.97
2022-08-16T20:14:46.476Z,5.43
2022-08-16T20:19:48.269Z,5.70
2022-08-16T20:24:50.915Z,6.67
2022-08-16T20:29:55.355Z,6.00
2022-08-16T20:34:57.099Z,4.53
2022-08-16T20:40:28.277Z,4.93
2022-08-16T20:45:26.978Z,7.27
2022-08-16T20:50:29.612Z,5.87
2022-08-16T20:55:34.356Z,6.17
2022-08-16T21:00:36.294Z,5.50
2022-08-16T21:05:38.091Z,5.47
2022-08-16T21:10:39.864Z,6.40
2022-08-16T21:15:42.059Z,6.93
2022-08-16T21:20:43.877Z,6.23
2022-08-16T21:25:57.756Z,6.50
2022-08-16T21:31:01.590Z,6.27
2022-08-16T21:36:03.779Z,6.33
2022-08-16T21:41:07.507Z,6.20
2022-08-16T21:46:09.409Z,6.33
2022-08-16T21:51:13.748Z,6.63
2022-08-16T21:56:16.590Z,7.30
2022-08-16T22:01:18.955Z,5.53
2022-08-16T22:06:20.746Z,7.00
2022-08-16T22:11:24.025Z,6.90
2022-08-16T22:16:27.623Z,6.80
2022-08-16T22:21:30.584Z,5.67
2022-08-16T22:26:34.667Z,7.03
2022-08-16T22:31:37.850Z,6.27
2022-08-16T22:36:39.947Z,7.23
2022-08-16T22:41:43.466Z,6.57
2022-08-16T22:46:45.169Z,7.37
2022-08-16T22:51:47.146Z,6.80
2022-08-16T22:56:48.926Z,7.00
2022-08-16T23:01:51.022Z,7.77
2022-08-16T23:06:52.806Z,6.53
2022-08-16T23:11:54.545Z,8.10
2022-08-16T23:16:56.551Z,7.50
2022-08-16T23:21:58.245Z,8.03
2022-08-16T23:27:00.487Z,7.70
2022-08-16T23:32:10.922Z,7.37
2022-08-16T23:37:12.616Z,7.77
2022-08-16T23:42:15.378Z,7.47
2022-08-16T23:47:37.246Z,8.53
2022-08-16T23:52:54.909Z,7.77
2022-08-16T23:57:57.686Z,7.80
